SBGL/GIG METAR and TAF weather

Enter ICAO airport designator
Station Type Date Time Source
SBGL METAR 2021/07/24 19:00 UTC NOAA

SBGL 241900Z 13010KT CAVOK 24/13 Q1020


Station Type Date Time Source
SBGL Decoded METAR 2021/07/24 19:00 UTC NOAA

Galeao, Brazil (SBGL) 22-49S 043-15W 42M
Jul 24, 2021 - 03:00 PM EDT / 2021.07.24 1900 UTC
Wind: from the SE (130 degrees) at 12 MPH (10 KT):0
Visibility: greater than 7 mile(s):0
Temperature: 75 F (24 C)
Dew Point: 55 F (13 C)
Relative Humidity: 50%
Pressure (altimeter): 30.12 in. Hg (1020 hPa)
ob: SBGL 241900Z 13010KT CAVOK 24/13 Q1020
cycle: 19

Station Type Date Time Source
SBGL TAF 2021/07/24 18:12 UTC NOAA

TAF SBGL 241510Z 2418/2524 14010KT CAVOK TN14/2510Z TX26/2517Z
BECMG 2423/2501 11007KT
BECMG 2507/2509 04003KT 8000 NSC
BECMG 2510/2512 7000 FEW015
BECMG 2514/2516 09005KT CAVOK
BECMG 2516/2518 13010KT
BECMG 2522/2524 06007KT
RMK PFV

Example: see airport list